Time;durP1;ratioP1;P1;durP2;ratioP2;P2;SDS_P1;SDS_P2;PMS_P1;PMS_P2;Temp;Humidity;BMP_temperature;BMP_pressure;BME280_temperature;BME280_humidity;BME280_pressure;Samples;Min_cycle;Max_cycle;Signal;HPM_P1;HPM_P2
2023/09/30 00:01:14;;;;;;;7.72;2.08;;;15.20;70.40;;;;;;5054648;28;20029;-67
2023/09/30 00:03:40;;;;;;;7.90;1.77;;;15.10;70.30;;;;;;5057451;28;20051;-68
2023/09/30 00:06:07;;;;;;;5.22;1.52;;;15.10;70.30;;;;;;5053995;28;20056;-67
2023/09/30 00:08:34;;;;;;;5.30;1.50;;;15.10;70.40;;;;;;5054417;28;20048;-70
2023/09/30 00:11:00;;;;;;;5.13;1.90;;;15.10;70.50;;;;;;5062161;28;20040;-67
2023/09/30 00:13:26;;;;;;;7.05;2.20;;;15.10;70.50;;;;;;5060582;28;20147;-71
2023/09/30 00:15:52;;;;;;;6.43;1.45;;;15.10;70.60;;;;;;5053514;28;20396;-73
2023/09/30 00:18:18;;;;;;;4.97;1.35;;;15.10;70.60;;;;;;5060485;28;20044;-74
2023/09/30 00:20:44;;;;;;;7.20;1.60;;;15.00;70.50;;;;;;5060418;28;20032;-67
2023/09/30 00:23:10;;;;;;;7.43;1.52;;;15.00;70.60;;;;;;5060691;28;20024;-70
2023/09/30 00:25:36;;;;;;;4.47;1.30;;;15.00;70.60;;;;;;5055425;28;20060;-68
2023/09/30 00:28:02;;;;;;;5.28;1.92;;;15.00;70.70;;;;;;5056069;28;20036;-66
2023/09/30 00:30:28;;;;;;;7.63;2.22;;;15.00;70.70;;;;;;5064684;28;20433;-67
2023/09/30 00:32:54;;;;;;;3.50;1.30;;;15.00;70.80;;;;;;5060245;28;20029;-70
2023/09/30 00:35:20;;;;;;;5.07;1.55;;;15.00;70.80;;;;;;5060472;28;20035;-67
2023/09/30 00:37:46;;;;;;;6.30;2.35;;;15.00;71.40;;;;;;5060152;28;20157;-67
2023/09/30 00:40:13;;;;;;;6.15;1.67;;;15.00;71.00;;;;;;5060222;28;20036;-67
2023/09/30 00:42:40;;;;;;;6.10;2.20;;;14.90;70.70;;;;;;5060381;28;20044;-68
2023/09/30 00:45:12;;;;;;;5.40;1.85;;;14.90;70.70;;;;;;5056548;28;20227;-68
2023/09/30 00:47:38;;;;;;;6.68;2.15;;;14.90;70.70;;;;;;5059047;28;20114;-70
2023/09/30 00:50:08;;;;;;;6.50;2.22;;;14.90;70.80;;;;;;5053221;28;20271;-69
2023/09/30 00:52:35;;;;;;;6.15;1.75;;;14.90;70.90;;;;;;5039322;28;20064;-68
2023/09/30 00:55:02;;;;;;;6.13;1.77;;;14.90;70.90;;;;;;5056363;28;20040;-71
2023/09/30 00:57:30;;;;;;;10.48;1.95;;;14.80;70.80;;;;;;5057693;28;20555;-69
2023/09/30 00:59:57;;;;;;;2.45;1.30;;;14.80;70.80;;;;;;5057311;28;20511;-68
2023/09/30 01:02:23;;;;;;;5.78;2.33;;;14.80;70.80;;;;;;5055876;28;20052;-68
2023/09/30 01:04:49;;;;;;;6.68;2.00;;;14.80;70.90;;;;;;5059447;28;20112;-68
2023/09/30 01:07:15;;;;;;;7.68;1.75;;;14.70;70.80;;;;;;5059877;28;20467;-68
2023/09/30 01:09:42;;;;;;;3.33;1.23;;;14.70;70.90;;;;;;5051107;28;20345;-71
2023/09/30 01:12:08;;;;;;;4.50;1.60;;;14.70;70.90;;;;;;5055154;28;20055;-67
2023/09/30 01:14:36;;;;;;;5.80;1.70;;;14.70;71.00;;;;;;5057876;28;20480;-68
2023/09/30 01:17:02;;;;;;;5.47;1.85;;;14.70;71.10;;;;;;5058291;28;20047;-67
2023/09/30 01:19:29;;;;;;;5.60;2.47;;;14.70;71.10;;;;;;5063243;28;20036;-68
2023/09/30 01:22:05;;;;;;;6.95;1.60;;;14.60;71.00;;;;;;5057709;28;20035;-67
2023/09/30 01:24:38;;;;;;;4.18;1.40;;;14.70;71.20;;;;;;5055131;28;20032;-73
2023/09/30 01:27:07;;;;;;;4.00;1.63;;;14.60;71.10;;;;;;5056301;28;20097;-68
2023/09/30 01:29:33;;;;;;;7.70;2.40;;;14.60;71.20;;;;;;5054188;28;20013;-69
2023/09/30 01:31:59;;;;;;;8.57;2.92;;;14.60;71.20;;;;;;5063923;28;20091;-67
2023/09/30 01:34:24;;;;;;;4.68;1.42;;;14.60;71.30;;;;;;5062557;28;20073;-66
2023/09/30 01:36:51;;;;;;;8.50;1.80;;;14.60;71.30;;;;;;5055771;28;20120;-66
2023/09/30 01:39:17;;;;;;;10.88;2.97;;;14.60;71.40;;;;;;5059367;28;20437;-67
2023/09/30 01:41:43;;;;;;;7.93;2.55;;;14.60;71.40;;;;;;5056513;28;20756;-68
2023/09/30 01:44:09;;;;;;;6.95;2.05;;;14.60;71.50;;;;;;5055765;28;20032;-67
2023/09/30 01:46:36;;;;;;;7.35;1.70;;;14.60;71.50;;;;;;5059381;28;20041;-67
2023/09/30 01:49:03;;;;;;;6.00;1.83;;;14.60;71.60;;;;;;5057893;28;20719;-67
2023/09/30 01:51:30;;;;;;;5.95;1.40;;;14.60;71.60;;;;;;5056573;28;20040;-71
2023/09/30 01:53:58;;;;;;;6.13;1.63;;;14.60;71.70;;;;;;5051961;28;20087;-67
2023/09/30 01:56:24;;;;;;;8.00;1.83;;;14.50;71.50;;;;;;5037118;28;20072;-70
2023/09/30 01:58:50;;;;;;;5.15;1.48;;;14.50;71.60;;;;;;5056404;28;20091;-67
2023/09/30 02:01:16;;;;;;;2.88;1.50;;;14.50;71.60;;;;;;5053683;28;20036;-67
2023/09/30 02:03:42;;;;;;;6.13;2.00;;;14.50;71.70;;;;;;5057540;28;20033;-67
2023/09/30 02:06:08;;;;;;;3.97;1.50;;;14.50;71.70;;;;;;5057404;28;20507;-68
2023/09/30 02:08:36;;;;;;;6.10;1.75;;;14.50;71.70;;;;;;5056905;28;20021;-65
2023/09/30 02:11:05;;;;;;;5.30;1.63;;;14.50;71.80;;;;;;5055556;28;20081;-67
2023/09/30 02:13:37;;;;;;;6.28;2.13;;;14.50;71.80;;;;;;5054462;28;20027;-67
2023/09/30 02:16:03;;;;;;;5.30;1.58;;;14.40;71.70;;;;;;5049882;28;20456;-67
2023/09/30 02:18:32;;;;;;;5.85;1.60;;;14.40;71.70;;;;;;5057467;28;20032;-66
2023/09/30 02:20:59;;;;;;;4.63;1.30;;;14.40;71.70;;;;;;5053860;28;20119;-72
2023/09/30 02:23:25;;;;;;;5.60;1.55;;;14.40;71.80;;;;;;5039172;28;20480;-70
2023/09/30 02:25:52;;;;;;;5.88;1.58;;;14.40;71.90;;;;;;5055464;28;20090;-67
2023/09/30 02:28:18;;;;;;;6.60;1.70;;;14.40;71.80;;;;;;5053646;28;20624;-73
2023/09/30 02:30:44;;;;;;;3.40;1.38;;;14.40;71.90;;;;;;5057832;28;20029;-68
2023/09/30 02:33:10;;;;;;;4.80;1.25;;;14.30;71.70;;;;;;5055269;28;20543;-72
2023/09/30 02:35:38;;;;;;;3.50;1.17;;;14.40;72.00;;;;;;5053395;28;20025;-68
2023/09/30 02:38:05;;;;;;;2.88;1.50;;;14.30;71.80;;;;;;5055604;28;20357;-70
2023/09/30 02:40:31;;;;;;;3.88;1.40;;;14.30;71.80;;;;;;5057300;28;20051;-68
2023/09/30 02:42:57;;;;;;;7.35;1.85;;;14.30;71.80;;;;;;5056990;28;20476;-70
2023/09/30 02:45:24;;;;;;;3.63;1.13;;;14.20;71.70;;;;;;5057224;28;20090;-67
2023/09/30 02:47:50;;;;;;;4.45;1.23;;;14.30;71.90;;;;;;5056019;28;20037;-66
2023/09/30 02:50:16;;;;;;;3.60;1.00;;;14.20;71.80;;;;;;5054552;28;20029;-72
2023/09/30 02:52:42;;;;;;;8.13;1.92;;;14.20;71.90;;;;;;5053155;28;20029;-70
2023/09/30 02:55:12;;;;;;;7.60;1.95;;;14.10;71.80;;;;;;5054170;28;20094;-68
2023/09/30 02:57:38;;;;;;;4.80;1.35;;;14.20;72.00;;;;;;5053423;28;20489;-69
2023/09/30 03:02:47;;;;;;;8.00;1.83;;;14.10;72.00;;;;;;5044720;28;20039;-69
2023/09/30 03:05:13;;;;;;;4.28;1.67;;;14.10;72.00;;;;;;5051567;28;20462;-69
2023/09/30 03:07:41;;;;;;;5.45;1.95;;;14.20;72.20;;;;;;5051518;28;20393;-69
2023/09/30 03:10:08;;;;;;;5.05;1.45;;;14.10;72.00;;;;;;5045046;28;20035;-71
2023/09/30 03:12:35;;;;;;;14.82;3.58;;;14.10;72.10;;;;;;5054320;28;20028;-68
2023/09/30 03:15:04;;;;;;;5.13;1.40;;;14.10;72.10;;;;;;5050440;28;20213;-70
2023/09/30 03:17:31;;;;;;;8.40;2.72;;;14.10;72.20;;;;;;5051456;28;20049;-69
2023/09/30 03:19:58;;;;;;;6.20;1.50;;;14.10;72.10;;;;;;5056491;28;20115;-77
2023/09/30 03:22:26;;;;;;;3.17;1.60;;;14.10;72.20;;;;;;5052704;28;20743;-70
2023/09/30 03:24:54;;;;;;;6.47;1.40;;;14.10;72.30;;;;;;5054118;28;20040;-68
2023/09/30 03:27:20;;;;;;;5.47;1.90;;;14.10;72.30;;;;;;5047040;28;20175;-67
2023/09/30 03:29:46;;;;;;;4.68;2.25;;;14.10;72.30;;;;;;5052807;28;20513;-68
2023/09/30 03:32:12;;;;;;;2.17;1.10;;;14.10;72.30;;;;;;5057807;28;20491;-68
2023/09/30 03:34:40;;;;;;;4.82;1.40;;;14.10;72.30;;;;;;5055869;28;20056;-70
2023/09/30 03:37:09;;;;;;;3.35;1.10;;;14.00;72.20;;;;;;5057127;28;20036;-71
2023/09/30 03:39:35;;;;;;;5.68;1.40;;;14.00;72.20;;;;;;5054631;28;20060;-72
2023/09/30 03:42:03;;;;;;;3.95;1.10;;;14.00;72.30;;;;;;5055354;28;20071;-67
2023/09/30 03:44:29;;;;;;;5.72;1.50;;;14.00;72.30;;;;;;5057276;28;20495;-67
2023/09/30 03:46:56;;;;;;;5.10;1.45;;;14.00;72.40;;;;;;5056328;28;20207;-68
2023/09/30 03:49:22;;;;;;;4.50;1.30;;;14.00;72.40;;;;;;5051689;28;20086;-68
2023/09/30 03:51:50;;;;;;;4.13;1.30;;;14.00;72.50;;;;;;5057970;28;20036;-68
2023/09/30 03:54:17;;;;;;;6.40;1.52;;;14.00;72.50;;;;;;5056701;28;20024;-67
2023/09/30 03:56:47;;;;;;;7.88;2.67;;;13.90;72.40;;;;;;5059434;28;20043;-67
2023/09/30 03:59:13;;;;;;;5.20;1.60;;;13.90;72.40;;;;;;5058850;28;20049;-67
2023/09/30 04:01:40;;;;;;;6.72;1.65;;;13.90;72.40;;;;;;5060750;28;20047;-69
2023/09/30 04:04:07;;;;;;;5.78;2.65;;;13.90;72.50;;;;;;5059735;28;20351;-68
2023/09/30 04:06:33;;;;;;;4.00;1.20;;;13.90;72.60;;;;;;5059160;28;20033;-70
2023/09/30 04:08:59;;;;;;;5.68;1.77;;;13.90;72.60;;;;;;5057916;28;20071;-66
2023/09/30 04:11:25;;;;;;;8.13;2.20;;;13.90;72.70;;;;;;5060886;28;20032;-71
2023/09/30 04:13:51;;;;;;;4.57;1.35;;;13.90;72.70;;;;;;5058830;28;20111;-70
2023/09/30 04:16:18;;;;;;;5.47;1.40;;;13.90;72.80;;;;;;5052627;28;20036;-73
2023/09/30 04:18:46;;;;;;;4.70;1.20;;;13.90;72.90;;;;;;5053621;28;20033;-67
2023/09/30 04:21:11;;;;;;;6.15;1.45;;;13.90;72.90;;;;;;5060256;28;20506;-71
2023/09/30 04:23:37;;;;;;;5.88;1.52;;;13.90;72.90;;;;;;5050862;28;20028;-71
2023/09/30 04:26:05;;;;;;;7.72;2.50;;;13.90;72.90;;;;;;5060571;28;20103;-72
2023/09/30 04:28:31;;;;;;;5.78;1.48;;;13.90;73.00;;;;;;5056769;28;20041;-70
2023/09/30 04:30:58;;;;;;;7.32;2.67;;;13.90;73.00;;;;;;5063409;28;20058;-68
2023/09/30 04:33:25;;;;;;;5.65;1.08;;;13.90;73.00;;;;;;5055945;28;20036;-74
2023/09/30 04:35:50;;;;;;;3.70;1.27;;;13.90;73.00;;;;;;5061349;28;20074;-67
2023/09/30 04:38:16;;;;;;;4.85;1.23;;;13.90;73.00;;;;;;5059236;28;20059;-66
2023/09/30 04:40:44;;;;;;;6.88;1.58;;;13.90;73.00;;;;;;5051598;28;20565;-67
2023/09/30 04:43:10;;;;;;;3.65;1.02;;;13.90;73.00;;;;;;5054611;28;20044;-70
2023/09/30 04:45:36;;;;;;;3.28;1.38;;;13.90;73.10;;;;;;5057922;28;20063;-70
2023/09/30 04:48:03;;;;;;;4.50;1.80;;;13.90;73.10;;;;;;5054870;28;20071;-68
2023/09/30 04:50:32;;;;;;;2.88;1.10;;;13.90;73.10;;;;;;5055144;28;20037;-67
2023/09/30 04:52:58;;;;;;;4.70;1.40;;;13.80;73.00;;;;;;5051377;28;20203;-68
2023/09/30 04:55:24;;;;;;;4.03;1.50;;;13.80;73.00;;;;;;5053924;28;20028;-70
2023/09/30 04:57:51;;;;;;;2.60;0.98;;;13.80;73.00;;;;;;5057058;28;20059;-67
2023/09/30 05:00:19;;;;;;;3.00;1.23;;;13.70;72.90;;;;;;5052688;28;20045;-67
2023/09/30 05:02:45;;;;;;;6.65;1.13;;;13.70;73.00;;;;;;5047601;28;20041;-67
2023/09/30 05:05:11;;;;;;;4.43;1.60;;;13.70;73.10;;;;;;5054803;28;20074;-69
2023/09/30 05:07:37;;;;;;;4.57;1.35;;;13.80;73.20;;;;;;5058822;28;20027;-68
2023/09/30 05:10:10;;;;;;;3.25;1.27;;;13.70;73.10;;;;;;5048982;28;20029;-67
2023/09/30 05:12:36;;;;;;;;;;;13.70;73.10;;;;;;5052204;28;20033;-69
2023/09/30 05:15:05;;;;;;;4.88;1.40;;;13.70;73.10;;;;;;5055128;28;19970;-67
2023/09/30 05:17:32;;;;;;;3.75;1.20;;;13.70;73.00;;;;;;5056917;28;20147;-68
2023/09/30 05:19:58;;;;;;;6.07;1.08;;;13.60;72.90;;;;;;5058448;28;20071;-66
2023/09/30 05:22:24;;;;;;;9.75;1.60;;;13.60;72.90;;;;;;5048438;28;20033;-69
2023/09/30 05:24:56;;;;;;;3.47;1.20;;;13.60;73.00;;;;;;5054502;28;20040;-66
2023/09/30 05:27:22;;;;;;;7.60;1.63;;;13.60;73.00;;;;;;5049337;28;20217;-68
2023/09/30 05:29:48;;;;;;;5.22;1.33;;;13.60;73.00;;;;;;5052176;28;20043;-70
2023/09/30 05:32:14;;;;;;;3.25;1.40;;;13.50;72.80;;;;;;5052944;28;20036;-70
2023/09/30 05:34:40;;;;;;;3.67;1.48;;;13.50;72.80;;;;;;5052356;28;20344;-66
2023/09/30 05:37:06;;;;;;;5.28;1.23;;;13.50;72.80;;;;;;5050738;28;20396;-67
2023/09/30 05:39:32;;;;;;;4.43;1.30;;;13.40;72.70;;;;;;5054146;28;20028;-69
2023/09/30 05:41:58;;;;;;;4.65;1.20;;;13.50;73.00;;;;;;5049433;28;20029;-68
2023/09/30 05:44:27;;;;;;;3.33;1.08;;;13.40;72.70;;;;;;5052977;28;20106;-67
2023/09/30 05:46:54;;;;;;;4.95;1.30;;;13.40;72.80;;;;;;5051907;28;20190;-67
2023/09/30 05:49:20;;;;;;;4.07;1.33;;;13.30;72.60;;;;;;5059036;28;20040;-68
2023/09/30 05:51:46;;;;;;;5.00;1.50;;;13.20;72.50;;;;;;5050660;28;20043;-70
2023/09/30 05:54:12;;;;;;;4.15;1.52;;;13.20;72.50;;;;;;5053544;28;20031;-66
2023/09/30 05:56:40;;;;;;;3.22;1.10;;;13.20;72.60;;;;;;5050100;28;20041;-69
2023/09/30 05:59:06;;;;;;;3.88;1.73;;;13.20;72.60;;;;;;5057569;28;20075;-66
2023/09/30 06:01:32;;;;;;;3.58;2.45;;;13.10;72.50;;;;;;5052709;28;20037;-66
2023/09/30 06:03:59;;;;;;;5.05;2.10;;;13.10;72.50;;;;;;5059246;28;20039;-66
2023/09/30 06:06:28;;;;;;;3.53;1.25;;;13.00;72.30;;;;;;5056898;28;20382;-68
2023/09/30 06:08:54;;;;;;;2.28;1.20;;;13.00;72.30;;;;;;5055027;28;20036;-66
2023/09/30 06:11:24;;;;;;;3.22;1.35;;;13.00;72.40;;;;;;5055557;28;20031;-66
2023/09/30 06:13:58;;;;;;;6.00;1.60;;;12.90;72.10;;;;;;5058392;28;20042;-67
2023/09/30 06:16:26;;;;;;;4.18;1.60;;;12.90;72.10;;;;;;5056388;28;20182;-69
2023/09/30 06:18:53;;;;;;;6.10;1.27;;;12.90;72.10;;;;;;5060829;28;20039;-69
2023/09/30 06:21:24;;;;;;;4.00;1.00;;;12.90;72.10;;;;;;5062690;28;20058;-66
2023/09/30 06:23:51;;;;;;;2.40;1.00;;;12.80;72.00;;;;;;5057665;28;20059;-69
2023/09/30 06:26:18;;;;;;;4.82;1.00;;;12.80;72.10;;;;;;5054348;28;20039;-67
2023/09/30 06:28:45;;;;;;;2.15;1.17;;;12.80;72.10;;;;;;5058050;28;20037;-69
2023/09/30 06:31:11;;;;;;;3.08;1.30;;;12.80;72.60;;;;;;5057520;28;20550;-68
2023/09/30 06:33:38;;;;;;;4.32;2.03;;;12.80;72.10;;;;;;5055727;28;20088;-67
2023/09/30 06:36:13;;;;;;;4.35;1.42;;;12.70;72.00;;;;;;5059856;28;20028;-67
2023/09/30 06:38:41;;;;;;;3.03;1.10;;;12.70;72.10;;;;;;5059674;28;20554;-70
2023/09/30 06:41:08;;;;;;;6.70;1.38;;;12.70;72.00;;;;;;5065651;28;20559;-68
2023/09/30 06:43:35;;;;;;;3.72;1.27;;;12.60;71.90;;;;;;5054117;28;20412;-67
2023/09/30 06:46:11;;;;;;;3.65;1.10;;;12.60;72.00;;;;;;5057580;28;20182;-67
2023/09/30 06:48:37;;;;;;;2.47;1.30;;;12.60;72.00;;;;;;5053698;28;20224;-68
2023/09/30 06:51:03;;;;;;;2.58;1.13;;;12.60;72.00;;;;;;5056741;28;20499;-67
2023/09/30 06:53:29;;;;;;;3.42;1.27;;;12.60;72.10;;;;;;5056125;28;20052;-68
2023/09/30 06:55:55;;;;;;;3.38;1.13;;;12.70;72.30;;;;;;5061584;28;20487;-68
2023/09/30 06:58:21;;;;;;;1.63;0.82;;;12.70;72.50;;;;;;5059679;28;20082;-72
2023/09/30 07:00:52;;;;;;;3.38;1.20;;;12.80;72.60;;;;;;5060689;28;20642;-67
2023/09/30 07:03:19;;;;;;;3.75;0.90;;;12.80;72.50;;;;;;5059288;28;20508;-68
2023/09/30 07:05:49;;;;;;;2.78;0.85;;;12.90;72.60;;;;;;5049580;28;20492;-69
2023/09/30 07:08:16;;;;;;;3.13;1.10;;;12.90;72.80;;;;;;5051712;28;20352;-70
2023/09/30 07:10:43;;;;;;;3.72;1.67;;;12.90;72.50;;;;;;5052030;28;20028;-68
2023/09/30 07:13:09;;;;;;;4.90;2.28;;;12.90;72.40;;;;;;5061914;28;20477;-67
2023/09/30 07:15:35;;;;;;;2.55;1.10;;;13.00;72.50;;;;;;5052124;28;20032;-70
2023/09/30 07:18:02;;;;;;;1.42;0.85;;;13.00;72.50;;;;;;5057026;28;20069;-71
2023/09/30 07:20:29;;;;;;;1.92;1.00;;;13.10;72.60;;;;;;5057166;28;20032;-71
2023/09/30 07:22:55;;;;;;;4.20;1.20;;;13.20;72.70;;;;;;5059085;28;20064;-68
2023/09/30 07:25:21;;;;;;;5.65;1.02;;;13.20;72.60;;;;;;5056025;28;20123;-67
2023/09/30 07:27:47;;;;;;;2.55;0.88;;;13.30;72.70;;;;;;5056033;28;20063;-73
2023/09/30 07:30:17;;;;;;;5.43;1.15;;;13.40;72.80;;;;;;5055113;28;20033;-72
2023/09/30 07:32:43;;;;;;;4.45;1.83;;;13.50;72.90;;;;;;5064894;28;20086;-70
2023/09/30 07:35:11;;;;;;;3.60;1.35;;;13.60;72.90;;;;;;5058190;28;20290;-68
2023/09/30 07:37:36;;;;;;;21.20;3.72;;;13.70;73.00;;;;;;5060875;28;20062;-72
2023/09/30 07:40:03;;;;;;;3.72;1.10;;;13.70;72.90;;;;;;5061152;28;20493;-68
2023/09/30 07:42:29;;;;;;;5.95;1.20;;;13.80;72.90;;;;;;5060959;28;20155;-74
2023/09/30 07:44:55;;;;;;;4.57;2.50;;;13.90;73.00;;;;;;5056755;28;20032;-69
2023/09/30 07:47:21;;;;;;;6.47;1.55;;;14.00;73.10;;;;;;5052555;28;20426;-74
2023/09/30 07:49:47;;;;;;;4.60;1.73;;;14.10;73.20;;;;;;5060364;28;20029;-68
2023/09/30 07:52:13;;;;;;;4.75;1.17;;;14.10;73.10;;;;;;5060037;28;20033;-69
2023/09/30 07:54:39;;;;;;;4.20;1.13;;;14.20;73.20;;;;;;5059763;28;20033;-69
2023/09/30 07:57:05;;;;;;;7.60;1.80;;;14.30;73.50;;;;;;5038854;28;20045;-67
2023/09/30 07:59:33;;;;;;;10.50;2.75;;;14.40;73.70;;;;;;5061436;28;20048;-68
2023/09/30 08:02:01;;;;;;;7.03;1.60;;;14.50;73.80;;;;;;5063136;28;20051;-68
2023/09/30 08:04:27;;;;;;;3.03;1.02;;;14.60;73.90;;;;;;5048983;28;20032;-67
2023/09/30 08:06:53;;;;;;;3.60;1.10;;;14.70;73.90;;;;;;5056367;28;20082;-69
2023/09/30 08:09:19;;;;;;;5.15;1.75;;;14.70;73.90;;;;;;5060148;28;20063;-67
2023/09/30 08:11:45;;;;;;;5.13;1.20;;;14.80;74.10;;;;;;5061374;28;20056;-69
2023/09/30 08:14:15;;;;;;;4.82;1.67;;;14.80;74.20;;;;;;5053339;28;20037;-68
2023/09/30 08:16:41;;;;;;;4.20;1.20;;;14.80;74.30;;;;;;5050742;28;20392;-68
2023/09/30 08:19:07;;;;;;;4.88;1.30;;;14.90;74.50;;;;;;5053880;28;20350;-66
2023/09/30 08:21:33;;;;;;;5.85;1.50;;;14.90;74.60;;;;;;5047415;28;20524;-73
2023/09/30 08:24:00;;;;;;;7.10;1.30;;;15.00;74.80;;;;;;5050502;28;20056;-71
2023/09/30 08:26:26;;;;;;;7.75;1.30;;;15.10;75.00;;;;;;5053625;28;20060;-72
2023/09/30 08:28:52;;;;;;;5.53;1.60;;;15.10;74.80;;;;;;5060561;28;20124;-71
2023/09/30 08:31:18;;;;;;;6.72;1.55;;;15.30;75.00;;;;;;5059650;28;20450;-68
2023/09/30 08:33:45;;;;;;;6.57;1.73;;;15.30;74.90;;;;;;5059329;28;20297;-68
2023/09/30 08:36:11;;;;;;;8.35;1.48;;;15.40;75.00;;;;;;5047697;28;20033;-72
2023/09/30 08:38:40;;;;;;;6.63;1.60;;;15.40;75.00;;;;;;5055997;28;20400;-68
2023/09/30 08:41:09;;;;;;;5.70;1.42;;;15.50;75.20;;;;;;5062098;28;20031;-68
2023/09/30 08:43:40;;;;;;;6.07;1.70;;;15.60;75.30;;;;;;5062662;28;20148;-68
2023/09/30 08:46:07;;;;;;;4.57;1.67;;;15.60;75.30;;;;;;5056856;28;20123;-70
2023/09/30 08:48:34;;;;;;;4.45;1.42;;;15.70;75.30;;;;;;5059219;28;20037;-68
2023/09/30 08:51:01;;;;;;;4.25;1.45;;;15.80;75.40;;;;;;5050071;28;20477;-69
2023/09/30 08:53:29;;;;;;;4.82;0.85;;;15.90;76.00;;;;;;5055950;28;20032;-70
2023/09/30 08:55:58;;;;;;;4.20;1.30;;;16.00;75.50;;;;;;5057176;28;20078;-69
2023/09/30 08:58:32;;;;;;;2.78;0.98;;;16.10;75.50;;;;;;5058715;28;20051;-68
2023/09/30 09:00:58;;;;;;;7.53;2.15;;;16.30;75.70;;;;;;5055377;28;20126;-68
2023/09/30 09:03:27;;;;;;;6.35;1.60;;;16.40;75.70;;;;;;5053698;28;20035;-70
2023/09/30 09:05:56;;;;;;;7.00;1.45;;;16.50;75.70;;;;;;5058262;28;20036;-68
2023/09/30 09:08:25;;;;;;;6.35;1.63;;;16.60;75.70;;;;;;5056146;28;20159;-69
2023/09/30 09:10:58;;;;;;;5.30;2.08;;;16.70;75.70;;;;;;5053718;28;20391;-68
2023/09/30 09:13:25;;;;;;;6.05;1.50;;;16.80;75.70;;;;;;5054075;28;20038;-68
2023/09/30 09:16:08;;;;;;;8.82;1.88;;;16.90;75.60;;;;;;5054084;28;20040;-68
2023/09/30 09:18:38;;;;;;;10.52;3.35;;;17.10;75.70;;;;;;5058761;28;20563;-68
2023/09/30 09:21:17;;;;;;;7.22;1.52;;;17.20;75.50;;;;;;5057800;28;20424;-70
2023/09/30 09:23:45;;;;;;;7.68;2.00;;;17.30;75.50;;;;;;5054879;28;20043;-68
2023/09/30 09:26:18;;;;;;;6.00;1.45;;;17.40;75.30;;;;;;5054464;28;20033;-71
2023/09/30 09:28:44;;;;;;;6.93;2.45;;;17.50;75.40;;;;;;5062555;28;20036;-73
2023/09/30 09:31:21;;;;;;;6.25;1.75;;;17.60;75.40;;;;;;5056045;28;20060;-72
2023/09/30 09:33:48;;;;;;;7.78;2.05;;;17.70;75.40;;;;;;5056145;28;20055;-71
2023/09/30 09:36:15;;;;;;;5.55;1.70;;;17.80;75.30;;;;;;5057987;28;20040;-68
2023/09/30 09:38:45;;;;;;;7.68;2.63;;;17.90;75.30;;;;;;5065024;28;20036;-68
2023/09/30 09:41:15;;;;;;;14.25;2.03;;;18.00;75.30;;;;;;5061031;28;20251;-68
2023/09/30 09:43:42;;;;;;;11.50;2.50;;;18.10;75.40;;;;;;5060922;28;20517;-69
2023/09/30 09:46:09;;;;;;;13.20;1.90;;;18.10;75.50;;;;;;5052377;28;20088;-71
2023/09/30 09:48:38;;;;;;;13.73;2.50;;;18.20;75.70;;;;;;5055803;28;20055;-68
2023/09/30 09:51:07;;;;;;;8.77;2.28;;;18.30;75.80;;;;;;5057615;28;20418;-71
2023/09/30 09:53:39;;;;;;;8.00;1.85;;;18.40;75.80;;;;;;5058929;28;20423;-72
2023/09/30 09:56:09;;;;;;;10.80;1.95;;;18.50;75.80;;;;;;5056205;28;20212;-67
2023/09/30 09:58:38;;;;;;;11.02;3.25;;;18.60;75.70;;;;;;5056853;28;20144;-67
2023/09/30 10:01:06;;;;;;;10.35;1.65;;;18.70;75.60;;;;;;5057642;28;20038;-68
2023/09/30 10:03:32;;;;;;;9.07;1.33;;;18.70;75.30;;;;;;5055961;28;20056;-67
2023/09/30 10:06:00;;;;;;;6.63;1.30;;;18.80;75.30;;;;;;5056349;28;20033;-67
2023/09/30 10:08:34;;;;;;;6.57;1.92;;;18.80;75.10;;;;;;5055944;28;20054;-69
2023/09/30 10:11:01;;;;;;;9.30;1.90;;;18.90;75.00;;;;;;5054842;28;20484;-67
2023/09/30 10:14:06;;;;;;;5.25;1.17;;;19.00;74.90;;;;;;5054324;28;20036;-67
2023/09/30 10:16:35;;;;;;;4.65;1.13;;;19.20;74.90;;;;;;5050292;28;20049;-68
2023/09/30 10:19:12;;;;;;;7.38;2.28;;;19.30;74.60;;;;;;5056106;28;20051;-67
2023/09/30 10:21:39;;;;;;;6.90;1.70;;;19.40;74.40;;;;;;5056345;28;20051;-66
2023/09/30 10:24:23;;;;;;;6.13;1.60;;;19.40;74.20;;;;;;5057540;28;20036;-67
2023/09/30 10:27:20;;;;;;;4.88;1.60;;;19.50;74.00;;;;;;5056674;28;20604;-67
2023/09/30 10:29:47;;;;;;;5.55;1.73;;;19.60;73.90;;;;;;5055193;28;20170;-67
2023/09/30 10:32:14;;;;;;;5.40;1.77;;;19.70;73.90;;;;;;5052701;28;20044;-68
2023/09/30 10:34:48;;;;;;;3.92;1.30;;;19.80;73.80;;;;;;5060318;28;20500;-67
2023/09/30 10:37:24;;;;;;;3.75;1.27;;;20.00;73.70;;;;;;5059048;28;20139;-67
2023/09/30 10:39:59;;;;;;;6.75;2.03;;;20.10;73.40;;;;;;5058811;28;20380;-67
2023/09/30 10:42:52;;;;;;;6.30;1.77;;;20.30;73.30;;;;;;5060828;28;20043;-68
2023/09/30 10:45:43;;;;;;;6.10;1.50;;;20.40;72.90;;;;;;5054337;28;20032;-67
2023/09/30 10:48:25;;;;;;;4.97;2.08;;;20.50;72.70;;;;;;5051885;28;20470;-68
2023/09/30 10:50:57;;;;;;;5.07;1.42;;;20.70;72.70;;;;;;5052246;28;20045;-67
2023/09/30 10:53:23;;;;;;;4.57;1.30;;;20.80;72.50;;;;;;5054720;28;20029;-68
2023/09/30 10:55:59;;;;;;;6.57;1.80;;;20.90;72.30;;;;;;5054534;28;20432;-67
2023/09/30 10:58:50;;;;;;;5.30;0.90;;;21.10;72.20;;;;;;5056688;28;20056;-67
2023/09/30 11:01:22;;;;;;;8.02;1.40;;;21.30;72.00;;;;;;5048455;28;20044;-67
2023/09/30 11:03:53;;;;;;;5.30;1.40;;;21.40;71.70;;;;;;5054241;28;20025;-67
2023/09/30 11:06:22;;;;;;;6.05;1.90;;;21.50;71.60;;;;;;5055767;28;20037;-67
2023/09/30 11:08:54;;;;;;;4.20;1.05;;;21.70;71.60;;;;;;5064636;28;20032;-66
2023/09/30 11:11:43;;;;;;;7.43;1.65;;;21.80;71.50;;;;;;5051725;28;20184;-66
2023/09/30 11:14:30;;;;;;;6.90;1.85;;;22.10;71.60;;;;;;5053347;28;20582;-66
2023/09/30 11:17:02;;;;;;;24.73;4.82;;;22.30;71.40;;;;;;5057951;28;20059;-68
2023/09/30 11:19:46;;;;;;;20.50;4.85;;;22.50;71.50;;;;;;5060750;28;20426;-66
2023/09/30 11:22:14;;;;;;;12.18;4.57;;;22.70;71.50;;;;;;5047901;28;20085;-67
2023/09/30 11:24:40;;;;;;;22.45;4.55;;;22.90;71.50;;;;;;5058165;28;20040;-66
2023/09/30 11:27:06;;;;;;;18.10;6.60;;;23.00;71.50;;;;;;5052080;28;20032;-67
2023/09/30 11:29:32;;;;;;;22.05;8.27;;;23.10;71.40;;;;;;5065305;28;20075;-66
2023/09/30 11:32:02;;;;;;;14.63;6.40;;;23.20;71.50;;;;;;5060675;28;20492;-67
2023/09/30 11:34:37;;;;;;;16.20;6.80;;;23.30;71.60;;;;;;5061737;28;20044;-68
2023/09/30 11:37:05;;;;;;;14.55;6.00;;;23.40;71.50;;;;;;5060814;28;20048;-67
2023/09/30 11:39:32;;;;;;;14.13;6.07;;;23.50;71.50;;;;;;5055794;28;20388;-67
2023/09/30 11:42:01;;;;;;;16.05;5.78;;;23.60;71.40;;;;;;5060649;28;20487;-68
2023/09/30 11:44:30;;;;;;;13.75;5.70;;;23.60;71.00;;;;;;5061249;28;20507;-67
2023/09/30 11:47:04;;;;;;;12.52;4.68;;;23.60;70.70;;;;;;5058501;28;20521;-66
2023/09/30 11:49:38;;;;;;;14.27;5.03;;;23.70;70.70;;;;;;5056625;28;20071;-66
2023/09/30 11:52:07;;;;;;;6.95;3.25;;;23.60;70.30;;;;;;5059669;28;20028;-67
2023/09/30 11:54:40;;;;;;;8.02;3.15;;;23.60;70.10;;;;;;5059640;28;20032;-66
2023/09/30 11:57:10;;;;;;;7.00;3.30;;;23.60;69.80;;;;;;5055765;28;20054;-67
2023/09/30 11:59:40;;;;;;;9.35;3.47;;;23.60;69.60;;;;;;5051818;28;20461;-67
2023/09/30 12:02:10;;;;;;;8.25;3.72;;;23.60;69.40;;;;;;5057788;28;20025;-68
2023/09/30 12:04:37;;;;;;;8.77;3.30;;;23.70;69.40;;;;;;5050988;28;20321;-67
2023/09/30 12:07:04;;;;;;;8.43;3.40;;;23.70;69.20;;;;;;5059186;28;20466;-69
2023/09/30 12:09:31;;;;;;;4.57;2.33;;;23.80;69.10;;;;;;5058237;28;20033;-67
2023/09/30 12:11:57;;;;;;;8.73;2.45;;;23.90;68.90;;;;;;5058324;28;20036;-67
2023/09/30 12:14:24;;;;;;;7.60;2.40;;;23.90;68.60;;;;;;5054346;28;20036;-67
2023/09/30 12:16:50;;;;;;;7.68;2.85;;;23.90;68.20;;;;;;5055710;28;20036;-68
2023/09/30 12:19:17;;;;;;;6.03;2.40;;;24.00;68.20;;;;;;5059037;28;20044;-67
2023/09/30 12:21:46;;;;;;;6.00;2.22;;;24.00;68.00;;;;;;5058816;28;20029;-67
2023/09/30 12:24:17;;;;;;;5.82;1.83;;;24.00;67.90;;;;;;5054144;28;20052;-67
2023/09/30 12:26:49;;;;;;;6.07;2.03;;;24.00;67.70;;;;;;5056767;28;20084;-68
2023/09/30 12:29:17;;;;;;;6.75;2.20;;;24.00;67.40;;;;;;5059612;28;20059;-68
2023/09/30 12:31:44;;;;;;;8.43;2.35;;;24.00;67.40;;;;;;5056626;28;20070;-67
2023/09/30 12:34:11;;;;;;;5.07;2.05;;;24.00;67.30;;;;;;5054793;28;20048;-70
2023/09/30 12:36:38;;;;;;;5.72;2.17;;;23.90;66.90;;;;;;5051384;28;20063;-71
2023/09/30 12:39:10;;;;;;;6.35;1.58;;;24.00;66.90;;;;;;5056249;28;20102;-67
2023/09/30 12:41:37;;;;;;;5.33;1.27;;;24.00;66.70;;;;;;5056134;28;20113;-67
2023/09/30 12:44:03;;;;;;;4.53;2.35;;;23.90;66.30;;;;;;5051281;28;20037;-67
2023/09/30 12:46:30;;;;;;;4.47;2.03;;;24.00;66.40;;;;;;5057294;28;20075;-68
2023/09/30 12:48:59;;;;;;;4.93;1.63;;;24.00;66.30;;;;;;5052998;28;20063;-68
2023/09/30 12:51:25;;;;;;;7.15;1.50;;;24.00;66.20;;;;;;5060647;28;20143;-67
2023/09/30 12:53:51;;;;;;;3.88;1.60;;;24.00;66.10;;;;;;5049074;28;20076;-69